Time;durP1;ratioP1;P1;durP2;ratioP2;P2;SDS_P1;SDS_P2;PMS_P1;PMS_P2;Temp;Humidity;BMP_temperature;BMP_pressure;BME280_temperature;BME280_humidity;BME280_pressure;Samples;Min_cycle;Max_cycle;Signal;HPM_P1;HPM_P2
2022/06/09 00:00:14;;;;;;;24.48;7.60;;;;;;;;;;5084406;28;20075;-62
2022/06/09 00:02:42;;;;;;;19.35;7.28;;;;;;;;;;5080238;28;20123;-62
2022/06/09 00:05:09;;;;;;;21.87;6.43;;;;;;;;;;5084756;28;20036;-62
2022/06/09 00:07:36;;;;;;;27.48;7.72;;;;;;;;;;5084415;28;20558;-62
2022/06/09 00:10:05;;;;;;;24.10;6.20;;;;;;;;;;5084804;28;20038;-62
2022/06/09 00:12:33;;;;;;;22.55;8.48;;;;;;;;;;5084126;28;20060;-62
2022/06/09 00:14:59;;;;;;;17.48;6.80;;;;;;;;;;5083690;28;20047;-62
2022/06/09 00:17:25;;;;;;;27.02;7.30;;;;;;;;;;5083910;28;20068;-62
2022/06/09 00:19:52;;;;;;;29.08;6.18;;;;;;;;;;5084725;28;20092;-62
2022/06/09 00:22:18;;;;;;;21.88;5.75;;;;;;;;;;5084379;28;20101;-62
2022/06/09 00:24:45;;;;;;;25.73;6.70;;;;;;;;;;5084797;28;20558;-62
2022/06/09 00:27:12;;;;;;;19.98;5.60;;;;;;;;;;5084179;28;20036;-62
2022/06/09 00:29:39;;;;;;;21.83;6.28;;;;;;;;;;5084509;28;20044;-62
2022/06/09 00:32:05;;;;;;;23.50;5.97;;;;;;;;;;5083006;28;20067;-62
2022/06/09 00:34:31;;;;;;;30.70;6.03;;;;;;;;;;5083831;28;20031;-62
2022/06/09 00:36:57;;;;;;;28.42;6.70;;;;;;;;;;5065720;28;20079;-62
2022/06/09 00:39:23;;;;;;;18.33;6.60;;;;;;;;;;5065845;28;20043;-62
2022/06/09 00:41:49;;;;;;;32.33;5.82;;;;;;;;;;5083860;28;20043;-62
2022/06/09 00:44:21;;;;;;;29.25;6.05;;;;;;;;;;5084228;28;20040;-62
2022/06/09 00:46:49;;;;;;;22.98;6.82;;;;;;;;;;5083501;28;20051;-62
2022/06/09 00:49:19;;;;;;;31.48;6.15;;;;;;;;;;5084241;28;20044;-62
2022/06/09 00:51:46;;;;;;;25.10;6.05;;;;;;;;;;5084218;28;20050;-62
2022/06/09 00:54:14;;;;;;;26.87;6.57;;;;;;;;;;5083112;28;20607;-62
2022/06/09 00:56:43;;;;;;;24.43;6.80;;;;;;;;;;5083725;28;20047;-62
2022/06/09 00:59:13;;;;;;;28.00;6.60;;;;;;;;;;5083781;28;20032;-62
2022/06/09 01:01:39;;;;;;;28.85;6.82;;;;;;;;;;5082920;28;20124;-62
2022/06/09 01:04:07;;;;;;;22.85;6.47;;;;;;;;;;5083951;28;20043;-62
2022/06/09 01:06:33;;;;;;;;;;;;;;;;;;5083799;28;20127;-62
2022/06/09 01:09:05;;;;;;;23.65;7.43;;;;;;;;;;5083168;28;19959;-62
2022/06/09 01:11:31;;;;;;;24.10;5.75;;;;;;;;;;5083126;28;20036;-62
2022/06/09 01:13:58;;;;;;;27.48;6.18;;;;;;;;;;5083694;28;20539;-62
2022/06/09 01:16:25;;;;;;;21.75;6.38;;;;;;;;;;5082794;28;20036;-62
2022/06/09 01:18:58;;;;;;;21.80;6.40;;;;;;;;;;5083884;28;20395;-62
2022/06/09 01:21:24;;;;;;;24.02;6.45;;;;;;;;;;5080536;28;20044;-62
2022/06/09 01:24:09;;;;;;;24.48;6.50;;;;;;;;;;5083315;28;20050;-62
2022/06/09 01:26:35;;;;;;;25.25;6.35;;;;;;;;;;5083408;28;20120;-62
2022/06/09 01:29:16;;;;;;;33.63;6.53;;;;;;;;;;5083727;28;20055;-62
2022/06/09 01:31:47;;;;;;;25.98;6.07;;;;;;;;;;5082833;28;20044;-62
2022/06/09 01:34:21;;;;;;;21.75;5.45;;;;;;;;;;5079415;28;20044;-62
2022/06/09 01:36:52;;;;;;;31.48;5.85;;;;;;;;;;5083551;28;20051;-62
2022/06/09 01:39:26;;;;;;;32.60;7.05;;;;;;;;;;5083460;28;20119;-62
2022/06/09 01:41:53;;;;;;;18.70;5.60;;;;;;;;;;5083204;28;20063;-62
2022/06/09 01:44:20;;;;;;;25.17;5.68;;;;;;;;;;5065422;28;20178;-62
2022/06/09 01:46:47;;;;;;;24.95;6.22;;;;;;;;;;5083272;28;20566;-62
2022/06/09 01:49:16;;;;;;;22.58;6.25;;;;;;;;;;5081865;28;20059;-62
2022/06/09 01:51:43;;;;;;;27.05;6.00;;;;;;;;;;5083814;28;20032;-62
2022/06/09 01:54:14;;;;;;;28.55;6.78;;;;;;;;;;5083239;28;20297;-62
2022/06/09 01:56:49;;;;;;;23.80;5.93;;;;;;;;;;5083239;28;20432;-62
2022/06/09 01:59:18;;;;;;;31.95;6.93;;;;;;;;;;5083482;28;20442;-62
2022/06/09 02:01:48;;;;;;;27.50;6.78;;;;;;;;;;5082353;28;20139;-62
2022/06/09 02:04:17;;;;;;;26.17;6.63;;;;;;;;;;5083731;28;20044;-62
2022/06/09 02:06:44;;;;;;;22.33;6.55;;;;;;;;;;5087203;28;20040;-62
2022/06/09 02:09:10;;;;;;;17.85;6.90;;;;;;;;;;5086733;28;20043;-62
2022/06/09 02:11:53;;;;;;;24.17;7.43;;;;;;;;;;5065216;28;20254;-62
2022/06/09 02:14:21;;;;;;;21.58;7.10;;;;;;;;;;5068229;28;20058;-62
2022/06/09 02:16:47;;;;;;;28.85;7.35;;;;;;;;;;5065234;28;20504;-62
2022/06/09 02:19:13;;;;;;;30.85;7.85;;;;;;;;;;5086969;28;20797;-62
2022/06/09 02:21:40;;;;;;;27.60;7.72;;;;;;;;;;5086229;28;20481;-62
2022/06/09 02:24:06;;;;;;;28.52;7.32;;;;;;;;;;5086699;28;20036;-62
2022/06/09 02:26:33;;;;;;;24.38;7.20;;;;;;;;;;5086763;28;20075;-62
2022/06/09 02:28:59;;;;;;;17.35;7.75;;;;;;;;;;5081925;28;20044;-62
2022/06/09 02:31:25;;;;;;;22.08;6.68;;;;;;;;;;5085069;28;20071;-62
2022/06/09 02:33:52;;;;;;;26.60;8.10;;;;;;;;;;5086262;28;20135;-62
2022/06/09 02:36:18;;;;;;;29.35;7.80;;;;;;;;;;5086201;28;20042;-62
2022/06/09 02:38:45;;;;;;;20.95;7.43;;;;;;;;;;5068316;28;20048;-62
2022/06/09 02:41:11;;;;;;;26.23;7.15;;;;;;;;;;5086546;28;20036;-62
2022/06/09 02:43:37;;;;;;;17.15;6.47;;;;;;;;;;5085692;28;20199;-62
2022/06/09 02:46:04;;;;;;;22.33;7.18;;;;;;;;;;5085759;28;20028;-62
2022/06/09 02:48:30;;;;;;;21.58;6.70;;;;;;;;;;5085833;28;20079;-62
2022/06/09 02:50:57;;;;;;;22.90;6.78;;;;;;;;;;5086047;28;20051;-62
2022/06/09 02:53:24;;;;;;;26.33;6.85;;;;;;;;;;5085614;28;20067;-62
2022/06/09 02:55:50;;;;;;;27.15;7.15;;;;;;;;;;5086032;28;20031;-62
2022/06/09 02:58:16;;;;;;;15.30;6.70;;;;;;;;;;5086340;28;20036;-62
2022/06/09 03:00:42;;;;;;;19.33;6.53;;;;;;;;;;5085599;28;20055;-62
2022/06/09 03:03:11;;;;;;;17.67;6.32;;;;;;;;;;5086374;28;20092;-62
2022/06/09 03:05:38;;;;;;;16.77;5.90;;;;;;;;;;5085376;28;20024;-62
2022/06/09 03:08:06;;;;;;;18.95;5.70;;;;;;;;;;5085609;28;20086;-62
2022/06/09 03:10:32;;;;;;;;;;;;;;;;;;5086079;28;20137;-62
2022/06/09 03:12:58;;;;;;;19.17;6.50;;;;;;;;;;5085323;28;19972;-62
2022/06/09 03:15:25;;;;;;;18.52;6.18;;;;;;;;;;5084534;28;20059;-62
2022/06/09 03:17:52;;;;;;;22.20;6.07;;;;;;;;;;5084667;28;20048;-62
2022/06/09 03:20:21;;;;;;;19.67;6.18;;;;;;;;;;5085049;28;20047;-62
2022/06/09 03:22:47;;;;;;;15.00;5.75;;;;;;;;;;5085815;28;20121;-62
2022/06/09 03:25:14;;;;;;;17.88;6.15;;;;;;;;;;5085553;28;20040;-62
2022/06/09 03:27:40;;;;;;;21.45;6.18;;;;;;;;;;5085626;28;20541;-62
2022/06/09 03:30:06;;;;;;;18.02;6.15;;;;;;;;;;5084562;28;20542;-62
2022/06/09 03:32:33;;;;;;;16.13;5.68;;;;;;;;;;5083318;28;20062;-62
2022/06/09 03:34:59;;;;;;;17.65;6.57;;;;;;;;;;5085075;28;20474;-62
2022/06/09 03:37:25;;;;;;;22.58;6.97;;;;;;;;;;5084861;28;20063;-62
2022/06/09 03:39:51;;;;;;;16.48;5.78;;;;;;;;;;5085047;28;20071;-62
2022/06/09 03:42:18;;;;;;;10.57;5.03;;;;;;;;;;5085239;28;20040;-62
2022/06/09 03:44:44;;;;;;;19.65;6.07;;;;;;;;;;5084806;28;20089;-62
2022/06/09 03:47:10;;;;;;;13.98;6.22;;;;;;;;;;5084973;28;20131;-62
2022/06/09 03:49:37;;;;;;;18.67;6.28;;;;;;;;;;5085021;28;20123;-62
2022/06/09 03:52:03;;;;;;;18.73;6.30;;;;;;;;;;5084607;28;20093;-62
2022/06/09 03:54:29;;;;;;;19.77;7.00;;;;;;;;;;5084906;28;20561;-62
2022/06/09 03:56:55;;;;;;;12.98;6.60;;;;;;;;;;5066583;28;20379;-62
2022/06/09 03:59:22;;;;;;;16.85;7.07;;;;;;;;;;5084363;28;20039;-62
2022/06/09 04:01:48;;;;;;;24.70;7.22;;;;;;;;;;5084411;28;20047;-62
2022/06/09 04:04:14;;;;;;;21.50;7.13;;;;;;;;;;5085272;28;20048;-62
2022/06/09 04:06:40;;;;;;;16.27;6.93;;;;;;;;;;5084504;28;20071;-62
2022/06/09 04:09:06;;;;;;;24.50;7.90;;;;;;;;;;5084339;28;20207;-62
2022/06/09 04:11:33;;;;;;;19.20;7.03;;;;;;;;;;5083875;28;20397;-62
2022/06/09 04:13:59;;;;;;;20.30;7.00;;;;;;;;;;5084386;28;20044;-62
2022/06/09 04:16:25;;;;;;;19.33;7.32;;;;;;;;;;5083665;28;20036;-62
2022/06/09 04:18:52;;;;;;;18.63;7.47;;;;;;;;;;5084409;28;20127;-62
2022/06/09 04:21:19;;;;;;;16.67;7.30;;;;;;;;;;5084290;28;20051;-62
2022/06/09 04:23:45;;;;;;;25.90;7.07;;;;;;;;;;5084905;28;20079;-62
2022/06/09 04:26:15;;;;;;;18.52;7.00;;;;;;;;;;5084623;28;20040;-62
2022/06/09 04:28:41;;;;;;;16.45;7.00;;;;;;;;;;5083193;28;20076;-62
2022/06/09 04:31:07;;;;;;;19.42;6.25;;;;;;;;;;5083670;28;20063;-62
2022/06/09 04:33:34;;;;;;;18.35;6.78;;;;;;;;;;5083725;28;20040;-62
2022/06/09 04:36:00;;;;;;;25.13;7.35;;;;;;;;;;5083886;28;20075;-62
2022/06/09 04:38:26;;;;;;;20.52;6.88;;;;;;;;;;5065419;28;20490;-62
2022/06/09 04:40:52;;;;;;;18.75;6.85;;;;;;;;;;5083774;28;20059;-62
2022/06/09 04:43:18;;;;;;;20.58;6.65;;;;;;;;;;5083665;28;20044;-62
2022/06/09 04:45:44;;;;;;;21.35;6.93;;;;;;;;;;5083416;28;20231;-62
2022/06/09 04:48:11;;;;;;;22.15;7.18;;;;;;;;;;5083462;28;20394;-62
2022/06/09 04:50:37;;;;;;;19.10;6.10;;;;;;;;;;5083620;28;20279;-62
2022/06/09 04:53:05;;;;;;;15.20;6.40;;;;;;;;;;5084331;28;20087;-62
2022/06/09 04:55:31;;;;;;;14.35;6.40;;;;;;;;;;5083800;28;20075;-62
2022/06/09 04:57:58;;;;;;;16.00;6.00;;;;;;;;;;5083764;28;20032;-62
2022/06/09 05:00:26;;;;;;;17.35;5.90;;;;;;;;;;5082842;28;20038;-62
2022/06/09 05:02:53;;;;;;;14.98;6.20;;;;;;;;;;5083929;28;20413;-62
2022/06/09 05:05:21;;;;;;;19.98;6.28;;;;;;;;;;5083311;28;20136;-63
2022/06/09 05:07:47;;;;;;;17.77;6.65;;;;;;;;;;5083025;28;20054;-62
2022/06/09 05:10:14;;;;;;;19.85;6.28;;;;;;;;;;5083812;28;20043;-63
2022/06/09 05:12:40;;;;;;;21.92;6.70;;;;;;;;;;5083692;28;20416;-62
2022/06/09 05:15:06;;;;;;;11.45;6.80;;;;;;;;;;5081787;28;20044;-62
2022/06/09 05:17:32;;;;;;;24.15;8.25;;;;;;;;;;5082537;28;20043;-61
2022/06/09 05:19:59;;;;;;;18.25;9.00;;;;;;;;;;5084346;28;20086;-62
2022/06/09 05:22:25;;;;;;;21.27;10.02;;;;;;;;;;5083826;28;20032;-62
2022/06/09 05:24:51;;;;;;;16.77;9.70;;;;;;;;;;5073838;28;20051;-62
2022/06/09 05:27:17;;;;;;;24.13;10.23;;;;;;;;;;5071317;28;20032;-62
2022/06/09 05:29:43;;;;;;;22.55;10.63;;;;;;;;;;5052232;28;20135;-62
2022/06/09 05:32:10;;;;;;;31.17;11.75;;;;;;;;;;5066872;28;20048;-62
2022/06/09 05:34:36;;;;;;;26.02;11.13;;;;;;;;;;5048005;28;20644;-62
2022/06/09 05:37:02;;;;;;;20.17;11.48;;;;;;;;;;5064090;28;20107;-62
2022/06/09 05:45:00;;;;;;;19.30;10.82;;;;;;;;;;5085282;28;20052;-62
2022/06/09 05:47:27;;;;;;;19.67;11.10;;;;;;;;;;5067058;28;20681;-62
2022/06/09 05:49:54;;;;;;;19.42;12.00;;;;;;;;;;5085236;28;20044;-62
2022/06/09 05:52:23;;;;;;;20.80;11.40;;;;;;;;;;5081075;28;20039;-62
2022/06/09 05:54:49;;;;;;;21.70;11.80;;;;;;;;;;5085409;28;20040;-62
2022/06/09 05:57:16;;;;;;;23.73;13.30;;;;;;;;;;5087586;28;20040;-62
2022/06/09 05:59:42;;;;;;;24.35;12.88;;;;;;;;;;5084686;28;20040;-62
2022/06/09 06:02:08;;;;;;;25.98;13.38;;;;;;;;;;5075339;28;20052;-60
2022/06/09 06:04:36;;;;;;;23.90;13.38;;;;;;;;;;5083327;28;20036;-60
2022/06/09 06:07:02;;;;;;;25.30;13.30;;;;;;;;;;5069026;28;20062;-62
2022/06/09 06:09:28;;;;;;;25.35;13.85;;;;;;;;;;5085807;28;20128;-62
2022/06/09 06:11:54;;;;;;;29.02;14.70;;;;;;;;;;5068193;28;20048;-62
2022/06/09 06:14:22;;;;;;;28.95;14.20;;;;;;;;;;5086137;28;20051;-62
2022/06/09 06:16:48;;;;;;;28.73;14.88;;;;;;;;;;5086665;28;20036;-62
2022/06/09 06:19:17;;;;;;;27.23;13.95;;;;;;;;;;5069017;28;20047;-62
2022/06/09 06:21:44;;;;;;;21.45;13.13;;;;;;;;;;5086573;28;20525;-62
2022/06/09 06:24:10;;;;;;;19.73;13.32;;;;;;;;;;5085667;28;20040;-62
2022/06/09 06:26:37;;;;;;;27.30;13.68;;;;;;;;;;5086716;28;20154;-61
2022/06/09 06:29:04;;;;;;;20.92;12.85;;;;;;;;;;5085205;28;20038;-61
2022/06/09 06:31:30;;;;;;;23.60;14.45;;;;;;;;;;5086382;28;20077;-61
2022/06/09 06:33:56;;;;;;;24.35;13.35;;;;;;;;;;5085871;28;20468;-61
2022/06/09 06:36:22;;;;;;;31.08;13.88;;;;;;;;;;5085820;28;20036;-61
2022/06/09 06:38:49;;;;;;;23.05;13.30;;;;;;;;;;5086032;28;20119;-61
2022/06/09 06:41:16;;;;;;;23.30;12.30;;;;;;;;;;5086628;28;20044;-61
2022/06/09 06:43:42;;;;;;;21.85;12.50;;;;;;;;;;5086667;28;20054;-61
2022/06/09 06:46:09;;;;;;;23.15;11.63;;;;;;;;;;5085531;28;20050;-61
2022/06/09 06:48:35;;;;;;;22.13;12.35;;;;;;;;;;5085750;28;20568;-61
2022/06/09 06:51:01;;;;;;;23.10;13.55;;;;;;;;;;5085856;28;20121;-61
2022/06/09 06:53:28;;;;;;;22.92;11.60;;;;;;;;;;5085129;28;20414;-61
2022/06/09 06:55:54;;;;;;;16.33;8.95;;;;;;;;;;5086179;28;20063;-61
2022/06/09 06:58:20;;;;;;;15.63;10.35;;;;;;;;;;5085656;28;20157;-61
2022/06/09 07:00:46;;;;;;;16.60;10.73;;;;;;;;;;5085496;28;20044;-61
2022/06/09 07:03:13;;;;;;;14.77;9.35;;;;;;;;;;5068015;28;20079;-61
2022/06/09 07:05:39;;;;;;;16.80;10.13;;;;;;;;;;5085617;28;20036;-61
2022/06/09 07:08:07;;;;;;;15.57;9.68;;;;;;;;;;5067558;28;20040;-61
2022/06/09 07:10:34;;;;;;;15.60;9.80;;;;;;;;;;5082104;28;20679;-61
2022/06/09 07:13:00;;;;;;;16.40;8.70;;;;;;;;;;5085559;28;20048;-61
2022/06/09 07:15:27;;;;;;;14.80;8.98;;;;;;;;;;5085112;28;20215;-61
2022/06/09 07:17:53;;;;;;;18.35;8.82;;;;;;;;;;5085151;28;20040;-61
2022/06/09 07:20:20;;;;;;;12.75;9.10;;;;;;;;;;5085116;28;20048;-61
2022/06/09 07:22:46;;;;;;;14.73;8.63;;;;;;;;;;5085896;28;20035;-61
2022/06/09 07:25:15;;;;;;;11.00;6.80;;;;;;;;;;5085977;28;20123;-61
2022/06/09 07:27:42;;;;;;;12.23;7.60;;;;;;;;;;5085550;28;20119;-61
2022/06/09 07:30:08;;;;;;;11.80;7.53;;;;;;;;;;5081109;28;20101;-61
2022/06/09 07:32:35;;;;;;;12.55;6.80;;;;;;;;;;5084452;28;20089;-62
2022/06/09 07:35:01;;;;;;;11.18;6.93;;;;;;;;;;5084874;28;20075;-61
2022/06/09 07:37:27;;;;;;;9.40;6.18;;;;;;;;;;5085027;28;20036;-61
2022/06/09 07:39:53;;;;;;;14.73;7.25;;;;;;;;;;5085293;28;20051;-61
2022/06/09 07:42:20;;;;;;;8.27;5.97;;;;;;;;;;5066146;28;20576;-62
2022/06/09 07:44:47;;;;;;;12.07;6.07;;;;;;;;;;5084655;28;20118;-61
2022/06/09 07:47:13;;;;;;;9.40;5.50;;;;;;;;;;5085428;28;20028;-61
2022/06/09 07:49:39;;;;;;;7.97;4.93;;;;;;;;;;5084611;28;20482;-61
2022/06/09 07:52:05;;;;;;;13.90;5.45;;;;;;;;;;5084508;28;20046;-59
2022/06/09 07:54:32;;;;;;;11.95;5.15;;;;;;;;;;5084669;28;20048;-61
2022/06/09 07:56:58;;;;;;;8.18;4.85;;;;;;;;;;5065795;28;20081;-61
2022/06/09 07:59:24;;;;;;;9.55;4.75;;;;;;;;;;5082990;28;20039;-62
2022/06/09 08:01:50;;;;;;;11.40;4.45;;;;;;;;;;5084700;28;20119;-62
2022/06/09 08:04:16;;;;;;;5.85;3.88;;;;;;;;;;5085103;28;20633;-61
2022/06/09 08:06:43;;;;;;;5.78;3.45;;;;;;;;;;5084959;28;20050;-61
2022/06/09 08:09:09;;;;;;;4.15;3.28;;;;;;;;;;5084728;28;20047;-62
2022/06/09 08:11:37;;;;;;;8.55;3.38;;;;;;;;;;5084139;28;20532;-61
2022/06/09 08:14:04;;;;;;;5.20;3.33;;;;;;;;;;5083834;28;20055;-61
2022/06/09 08:16:30;;;;;;;6.53;3.50;;;;;;;;;;5084021;28;20065;-62
2022/06/09 08:18:57;;;;;;;5.43;3.00;;;;;;;;;;5084284;28;20090;-61
2022/06/09 08:21:23;;;;;;;6.90;2.03;;;;;;;;;;5084174;28;20040;-62
2022/06/09 08:23:50;;;;;;;2.38;1.45;;;;;;;;;;5084830;28;20386;-62
2022/06/09 08:26:16;;;;;;;7.57;1.90;;;;;;;;;;5084865;28;20036;-62
2022/06/09 08:28:42;;;;;;;4.78;1.77;;;;;;;;;;5083635;28;20040;-62
2022/06/09 08:31:09;;;;;;;5.20;1.77;;;;;;;;;;5084068;28;20043;-61
2022/06/09 08:33:35;;;;;;;5.28;1.80;;;;;;;;;;5083459;28;20039;-61
2022/06/09 08:36:02;;;;;;;5.63;1.60;;;;;;;;;;5084064;28;20044;-61
2022/06/09 08:38:28;;;;;;;5.50;1.63;;;;;;;;;;5084199;28;20047;-62
2022/06/09 08:40:58;;;;;;;6.60;2.10;;;;;;;;;;5083837;28;20127;-61
2022/06/09 08:43:34;;;;;;;5.10;1.65;;;;;;;;;;5084142;28;20108;-61
2022/06/09 08:46:06;;;;;;;6.28;1.55;;;;;;;;;;5083855;28;20497;-62
2022/06/09 08:48:37;;;;;;;5.38;1.50;;;;;;;;;;5083548;28;20119;-61
2022/06/09 08:51:07;;;;;;;10.32;1.63;;;;;;;;;;5083670;28;20043;-62
2022/06/09 08:53:37;;;;;;;5.35;1.67;;;;;;;;;;5079932;28;20324;-62
2022/06/09 08:56:16;;;;;;;6.07;1.60;;;;;;;;;;5083716;28;20052;-62
2022/06/09 08:58:46;;;;;;;4.07;1.52;;;;;;;;;;5083930;28;20040;-62
2022/06/09 09:01:12;;;;;;;4.15;1.60;;;;;;;;;;5083811;28;20120;-61
2022/06/09 09:03:41;;;;;;;3.80;1.38;;;;;;;;;;5083687;28;20040;-61
2022/06/09 09:06:08;;;;;;;5.10;1.25;;;;;;;;;;5083577;28;20047;-61
2022/06/09 09:08:36;;;;;;;3.38;1.10;;;;;;;;;;5083229;28;20039;-62
2022/06/09 09:11:11;;;;;;;5.50;1.08;;;;;;;;;;5083652;28;20051;-61
2022/06/09 09:13:41;;;;;;;5.25;1.10;;;;;;;;;;5079340;28;20052;-62
2022/06/09 09:16:10;;;;;;;6.70;1.00;;;;;;;;;;5083382;28;20102;-62
2022/06/09 09:18:42;;;;;;;5.32;1.02;;;;;;;;;;5064828;28;20496;-61
2022/06/09 09:21:13;;;;;;;4.93;1.20;;;;;;;;;;5083145;28;20139;-61
2022/06/09 09:23:57;;;;;;;7.63;1.25;;;;;;;;;;5083361;28;20044;-61
2022/06/09 09:26:42;;;;;;;7.63;0.90;;;;;;;;;;5065055;28;20048;-61
2022/06/09 09:29:12;;;;;;;2.90;0.80;;;;;;;;;;5082800;28;20042;-61
2022/06/09 09:31:44;;;;;;;3.95;0.65;;;;;;;;;;5083089;28;20087;-61
2022/06/09 09:34:14;;;;;;;10.38;0.95;;;;;;;;;;5083129;28;20077;-61
2022/06/09 09:36:44;;;;;;;6.50;1.13;;;;;;;;;;5082583;28;20036;-61
2022/06/09 09:39:16;;;;;;;6.72;1.45;;;;;;;;;;5083510;28;20051;-61
2022/06/09 09:41:42;;;;;;;5.22;1.17;;;;;;;;;;5084285;28;20135;-61
2022/06/09 09:44:15;;;;;;;11.13;1.45;;;;;;;;;;5082455;28;20833;-62
2022/06/09 09:46:42;;;;;;;8.07;1.95;;;;;;;;;;5062227;28;20079;-61
2022/06/09 09:49:20;;;;;;;3.95;1.23;;;;;;;;;;5079318;28;20043;-61
2022/06/09 09:51:46;;;;;;;6.68;1.17;;;;;;;;;;5084157;28;20653;-61
2022/06/09 09:54:19;;;;;;;3.15;1.00;;;;;;;;;;5083497;28;20052;-61
2022/06/09 09:56:46;;;;;;;6.22;1.30;;;;;;;;;;5083734;28;20056;-61
2022/06/09 09:59:22;;;;;;;6.72;1.23;;;;;;;;;;5082742;28;20218;-61
2022/06/09 10:10:25;;;;;;;4.23;1.53;;;;;;;;;;5079626;28;20044;-61
2022/06/09 10:12:53;;;;;;;7.80;1.08;;;;;;;;;;5083606;28;20048;-62
2022/06/09 10:15:21;;;;;;;5.05;1.10;;;;;;;;;;5082149;28;20032;-62
2022/06/09 10:17:58;;;;;;;6.53;1.38;;;;;;;;;;5082736;28;20054;-61
2022/06/09 10:20:32;;;;;;;5.57;1.20;;;;;;;;;;5082013;28;20505;-62
2022/06/09 10:23:01;;;;;;;6.03;1.30;;;;;;;;;;5083202;28;20050;-61
2022/06/09 10:25:38;;;;;;;4.00;0.50;;;;;;;;;;5082584;28;20036;-61
2022/06/09 10:28:16;;;;;;;3.10;1.17;;;;;;;;;;5086351;28;20122;-62
2022/06/09 10:30:42;;;;;;;;;;;;;;;;;;5087565;28;20033;-61
2022/06/09 10:33:23;;;;;;;2.85;0.90;;;;;;;;;;5086100;28;20389;-61
2022/06/09 10:35:52;;;;;;;5.20;1.23;;;;;;;;;;5067935;28;20087;-61
2022/06/09 10:38:25;;;;;;;6.57;0.75;;;;;;;;;;5086129;28;20044;-61
2022/06/09 10:40:54;;;;;;;6.00;1.00;;;;;;;;;;5086372;28;20101;-61
2022/06/09 10:43:25;;;;;;;4.45;0.75;;;;;;;;;;5085746;28;20040;-61
2022/06/09 10:45:59;;;;;;;4.25;0.75;;;;;;;;;;5086485;28;20048;-61
2022/06/09 10:57:23;;;;;;;3.28;0.60;;;;;;;;;;5086420;28;20406;-61
2022/06/09 10:59:57;;;;;;;4.72;0.70;;;;;;;;;;5085168;28;20052;-61
2022/06/09 11:02:26;;;;;;;5.75;0.85;;;;;;;;;;5085125;28;20119;-61
2022/06/09 11:04:53;;;;;;;6.43;0.73;;;;;;;;;;5085496;28;20032;-61
2022/06/09 11:07:22;;;;;;;2.83;0.50;;;;;;;;;;5084944;28;20051;-60
2022/06/09 11:10:07;;;;;;;2.67;0.60;;;;;;;;;;5085576;28;20659;-59
2022/06/09 11:12:46;;;;;;;3.90;0.40;;;;;;;;;;5085399;28;20787;-61
2022/06/09 11:15:31;;;;;;;4.57;0.40;;;;;;;;;;5058007;28;20138;-61
2022/06/09 11:18:03;;;;;;;2.03;0.50;;;;;;;;;;5081519;28;20086;-61
2022/06/09 11:20:53;;;;;;;3.03;0.40;;;;;;;;;;5083131;28;20044;-61
2022/06/09 11:23:28;;;;;;;3.25;0.60;;;;;;;;;;5081186;28;20049;-62
2022/06/09 11:25:58;;;;;;;3.88;0.50;;;;;;;;;;5082122;28;20040;-61
2022/06/09 11:28:30;;;;;;;4.05;0.50;;;;;;;;;;5081773;28;20509;-62
2022/06/09 11:31:08;;;;;;;3.17;0.73;;;;;;;;;;5064515;28;20040;-62
2022/06/09 11:33:49;;;;;;;4.13;0.80;;;;;;;;;;5081753;28;20035;-62
2022/06/09 11:36:23;;;;;;;3.35;0.57;;;;;;;;;;5081695;28;20074;-61
2022/06/09 11:39:17;;;;;;;6.53;0.60;;;;;;;;;;5079471;28;20075;-61
2022/06/09 11:41:44;;;;;;;4.45;0.60;;;;;;;;;;5080565;28;20567;-61
2022/06/09 11:44:18;;;;;;;4.00;0.65;;;;;;;;;;5063589;28;20744;-62
2022/06/09 11:46:44;;;;;;;2.67;0.52;;;;;;;;;;5085117;28;20058;-61
2022/06/09 11:49:13;;;;;;;3.72;0.40;;;;;;;;;;5083654;28;20670;-61
2022/06/09 11:51:40;;;;;;;3.55;0.45;;;;;;;;;;5084280;28;20032;-61
2022/06/09 11:54:08;;;;;;;4.97;0.75;;;;;;;;;;5084412;28;20809;-61
2022/06/09 11:56:40;;;;;;;4.22;0.82;;;;;;;;;;5083871;28;20441;-61
2022/06/09 11:59:12;;;;;;;4.50;0.60;;;;;;;;;;5084065;28;20047;-61
2022/06/09 12:01:38;;;;;;;4.60;0.80;;;;;;;;;;5084070;28;20122;-61
2022/06/09 12:04:23;;;;;;;3.10;0.60;;;;;;;;;;5066529;28;20112;-61
2022/06/09 12:06:59;;;;;;;4.10;0.50;;;;;;;;;;5084046;28;20071;-61
2022/06/09 12:09:25;;;;;;;7.22;0.88;;;;;;;;;;5061863;28;20066;-61
2022/06/09 12:11:55;;;;;;;5.03;0.50;;;;;;;;;;5084313;28;20048;-61
2022/06/09 12:14:26;;;;;;;3.05;0.40;;;;;;;;;;5083403;28;20132;-61
2022/06/09 12:17:05;;;;;;;2.58;0.40;;;;;;;;;;5083453;28;20048;-61
2022/06/09 12:19:35;;;;;;;4.47;0.90;;;;;;;;;;5083582;28;20040;-61
2022/06/09 12:22:20;;;;;;;3.28;0.57;;;;;;;;;;5084091;28;20158;-61
2022/06/09 12:25:14;;;;;;;2.45;0.50;;;;;;;;;;5084680;28;20066;-61
2022/06/09 12:27:43;;;;;;;6.15;0.80;;;;;;;;;;5083286;28;20078;-61
2022/06/09 12:30:15;;;;;;;5.55;0.68;;;;;;;;;;5083719;28;20050;-61
2022/06/09 12:32:44;;;;;;;3.17;0.77;;;;;;;;;;5083252;28;20059;-61
2022/06/09 12:35:22;;;;;;;28.98;2.22;;;;;;;;;;5084228;28;20496;-61
2022/06/09 12:37:52;;;;;;;7.78;0.88;;;;;;;;;;5083387;28;20039;-61
2022/06/09 12:40:21;;;;;;;97.18;3.90;;;;;;;;;;5083888;28;20040;-61
2022/06/09 12:42:47;;;;;;;;;;;;;;;;;;5080971;28;20036;-61
2022/06/09 12:45:21;;;;;;;5.38;0.70;;;;;;;;;;5083875;28;20007;-61
2022/06/09 12:47:58;;;;;;;5.18;0.65;;;;;;;;;;5084017;28;20036;-61
2022/06/09 12:50:30;;;;;;;3.65;0.70;;;;;;;;;;5082638;28;20132;-60
2022/06/09 12:52:57;;;;;;;5.65;0.70;;;;;;;;;;5083908;28;20578;-61
2022/06/09 12:55:26;;;;;;;4.63;0.70;;;;;;;;;;5083179;28;20093;-61
2022/06/09 12:57:56;;;;;;;7.13;0.70;;;;;;;;;;5082676;28;20039;-61
2022/06/09 13:00:23;;;;;;;3.45;0.70;;;;;;;;;;5082300;28;20119;-61
2022/06/09 13:02:49;;;;;;;3.70;0.60;;;;;;;;;;5082138;28;20135;-61
2022/06/09 13:05:16;;;;;;;2.63;0.60;;;;;;;;;;5083102;28;20044;-59
2022/06/09 13:07:50;;;;;;;5.32;0.90;;;;;;;;;;5079918;28;20032;-60
2022/06/09 13:10:19;;;;;;;5.97;0.80;;;;;;;;;;5080381;28;20126;-60
2022/06/09 13:12:50;;;;;;;2.90;0.60;;;;;;;;;;5083493;28;20560;-61
2022/06/09 13:15:25;;;;;;;3.80;0.50;;;;;;;;;;5082720;28;20482;-60
2022/06/09 13:17:51;;;;;;;2.90;0.60;;;;;;;;;;5080932;28;20040;-60
2022/06/09 13:20:20;;;;;;;2.47;0.60;;;;;;;;;;5082588;28;20046;-60
2022/06/09 13:22:47;;;;;;;4.68;0.70;;;;;;;;;;5083468;28;20056;-60
2022/06/09 13:25:15;;;;;;;4.93;0.88;;;;;;;;;;5083110;28;20104;-61
2022/06/09 13:27:41;;;;;;;3.97;0.60;;;;;;;;;;5081610;28;20528;-60
2022/06/09 13:30:27;;;;;;;7.80;1.40;;;;;;;;;;5083097;28;20043;-60
2022/06/09 13:32:54;;;;;;;3.92;0.80;;;;;;;;;;5079255;28;20525;-60
2022/06/09 13:35:29;;;;;;;3.90;0.70;;;;;;;;;;5082720;28;20059;-60
2022/06/09 13:38:01;;;;;;;7.55;0.85;;;;;;;;;;5083069;28;20406;-60
2022/06/09 13:40:28;;;;;;;8.70;0.60;;;;;;;;;;5082838;28;20473;-60
2022/06/09 13:42:57;;;;;;;6.47;0.93;;;;;;;;;;5082850;28;20079;-60
2022/06/09 13:45:26;;;;;;;20.30;1.90;;;;;;;;;;5082841;28;20041;-60
2022/06/09 13:48:04;;;;;;;7.38;0.82;;;;;;;;;;5082028;28;20036;-60
2022/06/09 13:50:38;;;;;;;4.88;0.90;;;;;;;;;;5082637;28;20040;-60
2022/06/09 13:53:17;;;;;;;6.15;0.90;;;;;;;;;;5082953;28;20389;-60
2022/06/09 13:55:43;;;;;;;11.90;0.90;;;;;;;;;;5082722;28;20113;-60
2022/06/09 13:58:10;;;;;;;9.70;1.08;;;;;;;;;;5081832;28;20043;-60
2022/06/09 14:00:46;;;;;;;4.47;0.80;;;;;;;;;;5083058;28;20093;-60
2022/06/09 14:03:14;;;;;;;8.02;1.02;;;;;;;;;;5087521;28;20036;-60
2022/06/09 14:05:40;;;;;;;;;;;;;;;;;;5086907;28;20032;-60
2022/06/09 14:08:06;;;;;;;8.73;2.00;;;;;;;;;;5086722;28;19920;-60
2022/06/09 14:10:33;;;;;;;5.47;0.70;;;;;;;;;;5086368;28;20488;-60
2022/06/09 14:12:59;;;;;;;7.70;0.95;;;;;;;;;;5085761;28;20051;-60
2022/06/09 14:15:27;;;;;;;4.85;1.30;;;;;;;;;;5086431;28;20119;-60
2022/06/09 14:17:54;;;;;;;4.30;0.93;;;;;;;;;;5086785;28;20047;-60
2022/06/09 14:20:26;;;;;;;8.90;1.47;;;;;;;;;;5086756;28;20050;-60
2022/06/09 14:22:52;;;;;;;4.47;0.90;;;;;;;;;;5086284;28;20059;-61
2022/06/09 14:25:19;;;;;;;4.57;1.13;;;;;;;;;;5082293;28;20048;-60
2022/06/09 14:27:45;;;;;;;4.32;0.50;;;;;;;;;;5086303;28;20040;-60
2022/06/09 14:30:12;;;;;;;4.30;0.60;;;;;;;;;;5086143;28;20040;-62
2022/06/09 14:32:38;;;;;;;4.18;0.80;;;;;;;;;;5086184;28;20115;-61
2022/06/09 14:35:05;;;;;;;5.95;0.70;;;;;;;;;;5086285;28;20083;-62
2022/06/09 14:37:32;;;;;;;4.95;0.85;;;;;;;;;;5085848;28;20118;-62
2022/06/09 14:39:59;;;;;;;7.22;0.80;;;;;;;;;;5086036;28;20043;-62
2022/06/09 14:42:25;;;;;;;5.22;0.70;;;;;;;;;;5086061;28;20043;-62
2022/06/09 14:44:51;;;;;;;4.90;0.85;;;;;;;;;;5085471;28;20131;-59
2022/06/09 14:47:24;;;;;;;13.23;0.82;;;;;;;;;;5085150;28;20032;-60
2022/06/09 14:49:51;;;;;;;5.03;0.60;;;;;;;;;;5085593;28;20055;-60
2022/06/09 14:52:18;;;;;;;4.32;0.70;;;;;;;;;;5086082;28;20560;-59
2022/06/09 14:54:45;;;;;;;4.90;0.77;;;;;;;;;;5085352;28;20502;-59
2022/06/09 14:57:12;;;;;;;8.65;1.40;;;;;;;;;;5085983;28;20097;-59
2022/06/09 14:59:39;;;;;;;;;;;;;;;;;;5066660;28;20497;-59
2022/06/09 15:02:06;;;;;;;5.60;0.75;;;;;;;;;;5085572;28;19920;-59
2022/06/09 15:04:33;;;;;;;4.97;0.77;;;;;;;;;;5084403;28;20051;-59
2022/06/09 15:06:59;;;;;;;3.70;0.75;;;;;;;;;;5084512;28;20719;-59